Startpagina
METAR-TAF:

METAR-TAF

Vliegvelden :

Madrid-Torrejón, Spanje

breedte: 40-29N, lengte: 003-27W, hoogte: 607 m

Actueel weer

Dit bericht is 16 minuten geleden gemaakt, om 00:00 UTC
Wind 6 kt uit het oostnoordoosten
Temperatuur 16°C
Vochtigheid 94%
Druk 1016 hPa
Zicht 10 km of meer
geen wolken onder 1500 m en geen cumulonimbus

METAR: LETO 010000Z 07006KT CAVOK 16/15 Q1016 NOSIG

Tijdstip: 02:16 (00:16 UTC)

Verwachting

Dit bericht is 1 uur en het 16 minuten geleden gemaakt, om 23:00 UTC
Verwachting geldig van 01 om 00 UTC tot 01 om 24 UTC
Wind 5 kt uit variabele richting
Zicht 10 km of meer
Verspreide wolken op 4000 ft

TAF: LETO 312300Z 0100/0124 VRB05KT 9999 SCT040 TX31/0116Z TN15/0106Z

Waarnemingen en weersverwachtingen van meer dan 4000 vliegvelden (METAR en TAF).

De beschikbare stations zijn de gele en rode punten op de kaart.

Ga met uw muis naar het station om de naam te zien.

Klik dan om waarnemingen en weersverwachtingen te zien.

kaart wijzigen: klik op de groene knoppen met een zwart kruis om in te zoomen, op de groene knop met een streepje om uit te zoomen of op de groene pijlen voor aangrenzende kaarten.


METAR-TAF: